URMT 160830Z 29008MPS 9999 SCT030 19/07 Q1015 R25/010070 NOSIG RMK QFE723
QNH:(hPa/inHg/mmHg)1015 / 29.97 / 761
QFE:(hPa/inHg/mmHg)998 / 29.48 / 749
Temperature19
Dew Point7
Visibility> 10000
Weather
Cloud CoverSCT (3000);
Transition Altitude5000 ft.
Transition LevelFL60
SQUAWK